Honolulu, HI

02:17 PM HST del 01 Aprile 2015 (GMT -1000)
Pacific Heights | | Change Station
CLOSE
Current Station
Stazione meteo personale
Location: Honolulu, HI
Altitudine: 528 ft
Stazioni meteo nelle vicinanze

Alt. 528 ft 21.33 °N, 157.84 °W | Updated 12 seconds ago

Scattered Clouds
Nubi sparse
81.5 °F
Sembra 84 °F
N
6.0
Vento Variabile Vento da SSE
Gusts 9.0 mph

Oggi
Massima -- | Minima -- °F
--% Possibilità di precip.
Ieri
Massima -- | Minima -- °F
Precip. -- in
6:24 AM 6:46 PM
Gobba a ponente, 94% visible
Pressione 29.95 in
Visibilità 10.0 miglia
Nuvole Alcuni 2600 ft
Nubi sparse 3900 ft
Nubi sparse 5000 ft
Nubi sparse 26000 ft
Indice di calore 84 °F
Punto di rugiada 68 °F
Umidità 63%
Piovosità 0.07 in
Spessore del manto nevoso Non disponibile.
Raggi UV 8 fuori da 12
Polline Non disponibile.
Qualità dell'aria Non disponibile.
Flu Activity Non disponibile.
METAR PHNL 012353Z 10010KT 10SM FEW026 SCT039 SCT050 SCT260 26/18 A2995 RMK AO2 SLP141 T02560178 10267 20217 58023

More Conditions Fewer Conditions

Pressione 29.95 in
Visibilità 10.0 miglia
Nuvole Alcuni 2600 ft
Nubi sparse 3900 ft
Nubi sparse 5000 ft
Nubi sparse 26000 ft
Indice di calore 84 °F
Punto di rugiada 68 °F
Umidità 63%
Piovosità 0.07 in
Spessore del manto nevoso Non disponibile.
Raggi UV 8 fuori da 12
Polline Non disponibile.
Qualità dell'aria Non disponibile.
Flu Activity Non disponibile.
METAR PHNL 012353Z 10010KT 10SM FEW026 SCT039 SCT050 SCT260 26/18 A2995 RMK AO2 SLP141 T02560178 10267 20217 58023

More Conditions Fewer Conditions

10-Day Weather Forecast

Almanac

Astronomia

Apr. 01, 2015 Alba Tramonto
Ora attuale
Crepuscolo civile
Crepuscolo nautico
Crepuscolo astronomico
Luna
Estensione della luce visibile
Lunghezza del giorno
Tomorrow will be .
, % of the Moon is Illuminated

Gli estremi di oggi

State Highs State Lows

Community

WunderPhotos

Upload Photos

1,810,130 foto caricate!

WunderBlogs® & News

Nearby

Qualità dell'aria

  Qualità dell'aria Indice AQ Inquinante
Not available.

Profondità neve

Stazione Profondità Altitudine

Attività sismica

Città  Distanza Mag. Data & Ora
Minimo Magnitudo Mostrato è 2.5.

Temperature delle acque costiere

Località Temperatura

Stations

Stazioni meteo nelle vicinanze

Ubicazione della stazione Temp. Raffreddamento del vento Punto di rugiada Umidità Vento Precip. Alt. Aggiornato Tipo